Time;durP1;ratioP1;P1;durP2;ratioP2;P2;SDS_P1;SDS_P2;PMS_P1;PMS_P2;Temp;Humidity;BMP_temperature;BMP_pressure;BME280_temperature;BME280_humidity;BME280_pressure;Samples;Min_cycle;Max_cycle;Signal;HPM_P1;HPM_P2
2022/03/10 00:00:13;;;;;;;28.13;12.50;;;3.80;99.90;;;;;;5075453;28;20188;-42
2022/03/10 00:02:43;;;;;;;23.77;12.60;;;3.80;99.90;;;;;;5075398;28;20180;-43
2022/03/10 00:05:16;;;;;;;26.00;12.83;;;3.70;99.90;;;;;;5075398;28;20183;-39
2022/03/10 00:07:42;;;;;;;20.73;12.10;;;3.80;99.90;;;;;;5075266;28;20249;-41
2022/03/10 00:10:08;;;;;;;24.37;12.23;;;3.70;99.90;;;;;;5075041;28;20523;-41
2022/03/10 00:12:34;;;;;;;22.13;12.37;;;3.80;99.90;;;;;;5074932;28;20180;-41
2022/03/10 00:15:06;;;;;;;26.73;13.53;;;3.80;99.90;;;;;;5074852;28;20229;-40
2022/03/10 00:17:32;;;;;;;24.03;13.77;;;3.80;99.90;;;;;;5057201;28;20203;-42
2022/03/10 00:19:57;;;;;;;21.87;12.37;;;3.70;99.90;;;;;;5074793;28;20233;-41
2022/03/10 00:22:24;;;;;;;25.60;13.10;;;3.70;99.90;;;;;;5074718;28;20175;-38
2022/03/10 00:24:49;;;;;;;22.17;12.90;;;3.60;99.90;;;;;;5074714;28;20238;-41
2022/03/10 00:27:15;;;;;;;21.07;12.63;;;3.50;99.90;;;;;;5074992;28;20222;-42
2022/03/10 00:29:40;;;;;;;24.13;13.00;;;3.50;99.90;;;;;;5074769;28;20176;-39
2022/03/10 00:32:06;;;;;;;22.23;12.40;;;3.50;99.90;;;;;;5074541;28;20176;-41
2022/03/10 00:34:32;;;;;;;23.63;13.90;;;3.40;99.90;;;;;;5074002;28;20190;-44
2022/03/10 00:36:57;;;;;;;24.47;12.53;;;3.30;99.90;;;;;;5074377;28;20299;-40
2022/03/10 00:39:23;;;;;;;23.00;12.40;;;3.30;99.90;;;;;;5074883;28;20211;-40
2022/03/10 00:41:49;;;;;;;22.23;12.10;;;3.20;99.90;;;;;;5074283;28;20184;-40
2022/03/10 00:44:15;;;;;;;28.07;13.03;;;3.20;99.90;;;;;;5074311;28;20742;-43
2022/03/10 00:46:40;;;;;;;21.43;12.43;;;3.00;99.90;;;;;;5074190;28;20318;-39
2022/03/10 00:49:06;;;;;;;27.27;14.03;;;2.90;99.90;;;;;;5074485;28;20640;-41
2022/03/10 00:51:31;;;;;;;21.97;13.43;;;2.80;99.90;;;;;;5056478;28;20183;-41
2022/03/10 00:53:57;;;;;;;24.63;13.20;;;2.80;99.90;;;;;;5074489;28;20191;-42
2022/03/10 00:56:22;;;;;;;23.67;13.73;;;2.80;99.90;;;;;;5074205;28;20179;-41
2022/03/10 00:58:48;;;;;;;29.87;13.40;;;2.80;99.90;;;;;;5074507;28;20203;-40
2022/03/10 01:01:14;;;;;;;26.47;13.40;;;2.80;99.90;;;;;;5074469;28;20257;-42
2022/03/10 01:03:39;;;;;;;22.27;12.87;;;2.80;99.90;;;;;;5074049;28;20686;-42
2022/03/10 01:06:05;;;;;;;22.47;12.97;;;2.80;99.90;;;;;;5074348;28;20251;-42
2022/03/10 01:08:30;;;;;;;22.43;12.50;;;2.80;99.90;;;;;;5075658;28;20195;-40
2022/03/10 01:10:56;;;;;;;21.73;12.20;;;2.70;99.90;;;;;;5076315;28;20187;-41
2022/03/10 01:13:22;;;;;;;23.10;13.20;;;2.60;99.90;;;;;;5075271;28;20587;-41
2022/03/10 01:15:47;;;;;;;24.63;13.37;;;2.60;99.90;;;;;;5074029;28;20187;-40
2022/03/10 01:18:16;;;;;;;22.57;13.00;;;2.60;99.90;;;;;;5073688;28;20693;-41
2022/03/10 01:20:42;;;;;;;20.50;12.13;;;2.60;99.90;;;;;;5073670;28;20186;-39
2022/03/10 01:23:10;;;;;;;21.57;11.47;;;2.70;99.90;;;;;;5073585;28;20211;-38
2022/03/10 01:25:36;;;;;;;23.97;11.77;;;2.80;99.90;;;;;;5073894;28;20183;-39
2022/03/10 01:28:02;;;;;;;23.03;12.93;;;2.70;99.90;;;;;;5073491;28;20238;-41
2022/03/10 01:30:27;;;;;;;25.40;13.87;;;2.90;99.90;;;;;;5073836;28;20219;-40
2022/03/10 01:32:53;;;;;;;19.93;11.47;;;2.80;99.90;;;;;;5073581;28;20266;-39
2022/03/10 01:35:19;;;;;;;22.37;12.17;;;2.90;99.90;;;;;;5073759;28;20194;-40
2022/03/10 01:37:44;;;;;;;26.93;10.17;;;2.90;99.90;;;;;;5073324;28;20215;-43
2022/03/10 01:40:16;;;;;;;24.00;12.63;;;2.90;99.90;;;;;;5073649;28;20186;-40
2022/03/10 01:42:42;;;;;;;21.00;11.00;;;2.90;99.90;;;;;;5073415;28;20171;-42
2022/03/10 01:45:09;;;;;;;24.57;12.53;;;2.90;99.90;;;;;;5073129;28;20211;-42
2022/03/10 01:47:35;;;;;;;23.23;12.07;;;2.90;99.90;;;;;;5073253;28;20210;-42
2022/03/10 01:50:02;;;;;;;18.43;11.57;;;3.00;99.90;;;;;;5073618;28;20180;-42
2022/03/10 01:52:28;;;;;;;22.47;11.60;;;3.00;99.90;;;;;;5073324;28;20182;-42
2022/03/10 01:54:54;;;;;;;19.83;11.33;;;3.00;99.90;;;;;;5073335;28;20228;-43
2022/03/10 01:57:20;;;;;;;25.17;10.57;;;3.00;99.90;;;;;;5055408;28;20202;-41
2022/03/10 01:59:45;;;;;;;25.03;12.77;;;3.10;99.90;;;;;;5073775;28;20586;-42
2022/03/10 02:02:11;;;;;;;20.90;11.97;;;3.10;99.90;;;;;;5073529;28;20551;-41
2022/03/10 02:04:37;;;;;;;20.77;11.70;;;3.10;99.90;;;;;;5055700;28;20219;-40
2022/03/10 02:07:05;;;;;;;21.33;11.63;;;3.10;99.90;;;;;;5074422;28;20221;-41
2022/03/10 02:12:16;;;;;;;29.33;12.30;;;3.10;99.90;;;;;;5062148;28;20681;-39
2022/03/10 02:17:26;;;;;;;21.33;11.83;;;3.00;99.90;;;;;;5073620;28;20241;-39
2022/03/10 02:19:57;;;;;;;19.17;11.67;;;3.00;99.90;;;;;;5073194;28;20221;-40
2022/03/10 02:22:24;;;;;;;22.63;12.27;;;2.90;99.90;;;;;;5073293;28;20183;-40
2022/03/10 02:24:51;;;;;;;22.70;11.73;;;2.90;99.90;;;;;;5073288;28;20646;-41
2022/03/10 02:27:24;;;;;;;20.63;11.80;;;2.90;99.90;;;;;;5073492;28;20202;-41
2022/03/10 02:29:52;;;;;;;22.07;11.37;;;2.90;99.90;;;;;;5073279;28;20158;-42
2022/03/10 02:32:19;;;;;;;24.37;11.60;;;2.90;99.90;;;;;;5073177;28;20179;-40
2022/03/10 02:34:45;;;;;;;21.57;11.27;;;2.90;99.90;;;;;;5072894;28;20235;-40
2022/03/10 02:37:12;;;;;;;21.60;11.63;;;2.90;99.90;;;;;;5072770;28;20301;-40
2022/03/10 02:39:39;;;;;;;24.93;11.00;;;2.90;99.90;;;;;;5073165;28;20190;-41
2022/03/10 02:42:05;;;;;;;21.10;12.03;;;2.90;99.90;;;;;;5073079;28;20249;-40
2022/03/10 02:44:31;;;;;;;18.60;11.23;;;2.90;99.90;;;;;;5054796;28;20225;-43
2022/03/10 02:46:57;;;;;;;22.77;11.30;;;2.90;99.90;;;;;;5054815;28;20203;-41
2022/03/10 02:49:23;;;;;;;21.63;12.03;;;2.90;99.90;;;;;;5072806;28;20517;-39
2022/03/10 02:51:49;;;;;;;21.43;12.00;;;2.80;99.90;;;;;;5072743;28;20266;-39
2022/03/10 02:54:15;;;;;;;24.10;13.17;;;2.80;99.90;;;;;;5072738;28;20265;-41
2022/03/10 02:56:40;;;;;;;21.83;12.60;;;2.80;99.90;;;;;;5056003;28;20719;-41
2022/03/10 02:59:06;;;;;;;22.30;12.10;;;2.70;99.90;;;;;;5076630;28;20316;-42
2022/03/10 03:01:32;;;;;;;25.33;12.80;;;2.70;99.90;;;;;;5076391;28;20187;-41
2022/03/10 03:03:57;;;;;;;23.60;11.77;;;2.70;99.90;;;;;;5076249;28;20198;-39
2022/03/10 03:06:23;;;;;;;25.20;12.57;;;2.60;99.90;;;;;;5076290;28;20183;-40
2022/03/10 03:08:49;;;;;;;23.00;12.93;;;2.60;99.90;;;;;;5076517;28;20218;-42
2022/03/10 03:11:15;;;;;;;21.97;12.83;;;2.60;99.90;;;;;;5076261;28;20182;-42
2022/03/10 03:13:41;;;;;;;21.67;12.03;;;2.60;99.90;;;;;;5076211;28;20220;-42
2022/03/10 03:16:06;;;;;;;20.97;12.03;;;2.60;99.90;;;;;;5059005;28;20182;-42
2022/03/10 03:18:32;;;;;;;23.67;12.20;;;2.50;99.90;;;;;;5076034;28;20276;-38
2022/03/10 03:20:58;;;;;;;23.47;11.63;;;2.50;99.90;;;;;;5076311;28;20623;-39
2022/03/10 03:23:24;;;;;;;20.23;12.43;;;2.50;99.90;;;;;;5058247;28;20259;-39
2022/03/10 03:25:51;;;;;;;23.90;12.07;;;2.40;99.90;;;;;;5076158;28;20183;-41
2022/03/10 03:28:17;;;;;;;26.73;12.27;;;2.40;99.90;;;;;;5076389;28;20191;-41
2022/03/10 03:30:42;;;;;;;21.73;12.10;;;2.40;99.90;;;;;;5076491;28;20503;-41
2022/03/10 03:33:08;;;;;;;22.70;11.83;;;2.30;99.90;;;;;;5075747;28;20709;-40
2022/03/10 03:35:33;;;;;;;24.23;11.93;;;2.30;99.90;;;;;;5076346;28;20236;-38
2022/03/10 03:37:59;;;;;;;23.97;12.37;;;2.30;99.90;;;;;;5057560;28;20690;-40
2022/03/10 03:40:25;;;;;;;24.30;12.37;;;2.30;99.90;;;;;;5075664;28;20183;-40
2022/03/10 03:42:50;;;;;;;23.53;11.93;;;2.40;99.90;;;;;;5075786;28;20198;-39
2022/03/10 03:45:16;;;;;;;23.57;11.57;;;2.40;99.90;;;;;;5075871;28;20185;-40
2022/03/10 03:47:42;;;;;;;19.33;11.33;;;2.40;99.90;;;;;;5075345;28;20202;-40
2022/03/10 03:50:08;;;;;;;23.57;12.00;;;2.40;99.90;;;;;;5075659;28;20218;-42
2022/03/10 03:52:34;;;;;;;22.47;12.57;;;2.40;99.90;;;;;;5075400;28;20175;-39
2022/03/10 03:54:59;;;;;;;22.87;12.37;;;2.40;99.90;;;;;;5075549;28;20171;-39
2022/03/10 03:57:25;;;;;;;22.33;12.43;;;2.30;99.90;;;;;;5075451;28;20202;-42
2022/03/10 03:59:51;;;;;;;21.63;12.20;;;2.30;99.90;;;;;;5075556;28;20265;-42
2022/03/10 04:02:16;;;;;;;22.63;13.33;;;2.20;99.90;;;;;;5075487;28;20185;-38
2022/03/10 04:04:42;;;;;;;21.77;12.83;;;2.10;99.90;;;;;;5075030;28;20253;-39
2022/03/10 04:07:07;;;;;;;24.80;13.87;;;2.00;99.90;;;;;;5075169;28;20201;-40
2022/03/10 04:09:33;;;;;;;21.43;12.60;;;2.00;99.90;;;;;;5075336;28;20595;-41
2022/03/10 04:11:59;;;;;;;25.13;12.80;;;1.90;99.90;;;;;;5075274;28;20201;-40
2022/03/10 04:14:24;;;;;;;25.03;13.70;;;1.80;99.90;;;;;;5074953;28;20225;-39
2022/03/10 04:16:50;;;;;;;23.07;13.67;;;1.80;99.90;;;;;;5056958;28;20236;-40
2022/03/10 04:19:16;;;;;;;26.17;13.90;;;1.80;99.90;;;;;;5074925;28;20180;-40
2022/03/10 04:21:41;;;;;;;24.17;12.50;;;1.70;99.90;;;;;;5074824;28;20176;-39
2022/03/10 04:24:09;;;;;;;21.00;13.20;;;1.60;99.90;;;;;;5074709;28;20210;-39
2022/03/10 04:26:39;;;;;;;22.30;12.93;;;1.60;99.90;;;;;;5039965;28;20214;-41
2022/03/10 04:29:04;;;;;;;29.87;13.70;;;1.60;99.90;;;;;;5075241;28;20171;-38
2022/03/10 04:31:30;;;;;;;20.83;11.50;;;1.60;99.90;;;;;;5074614;28;20586;-40
2022/03/10 04:33:55;;;;;;;19.47;12.30;;;1.50;99.90;;;;;;5074767;28;20684;-38
2022/03/10 04:36:21;;;;;;;20.40;12.20;;;1.50;99.90;;;;;;5074359;28;20181;-40
2022/03/10 04:38:47;;;;;;;21.63;12.83;;;1.40;99.90;;;;;;5074512;28;20213;-40
2022/03/10 04:41:13;;;;;;;23.57;12.37;;;1.40;99.90;;;;;;5074405;28;20185;-38
2022/03/10 04:43:39;;;;;;;21.57;13.13;;;1.40;99.90;;;;;;5074581;28;20208;-40
2022/03/10 04:46:04;;;;;;;22.20;12.97;;;1.40;99.90;;;;;;5074491;28;20170;-40
2022/03/10 04:48:31;;;;;;;21.67;12.33;;;1.40;99.90;;;;;;5074321;28;20273;-39
2022/03/10 04:50:56;;;;;;;22.23;13.57;;;1.40;99.90;;;;;;5074274;28;20186;-43
2022/03/10 04:53:22;;;;;;;20.43;12.03;;;1.30;99.90;;;;;;5074168;28;20182;-39
2022/03/10 04:55:48;;;;;;;27.03;15.40;;;1.40;99.90;;;;;;5074760;28;20192;-42
2022/03/10 04:58:14;;;;;;;28.30;15.40;;;1.30;99.90;;;;;;5075714;28;20197;-39
2022/03/10 05:00:39;;;;;;;25.43;13.67;;;1.30;99.90;;;;;;5077418;28;20187;-41
2022/03/10 05:03:06;;;;;;;20.73;12.43;;;1.30;99.90;;;;;;5076886;28;20514;-42
2022/03/10 05:05:32;;;;;;;23.57;12.70;;;1.30;99.90;;;;;;5074268;28;20210;-39
2022/03/10 05:07:58;;;;;;;23.73;13.30;;;1.30;99.90;;;;;;5074001;28;20669;-39
2022/03/10 05:10:23;;;;;;;21.53;12.23;;;1.30;99.90;;;;;;5073946;28;20178;-42
2022/03/10 05:12:56;;;;;;;20.83;12.07;;;1.30;99.90;;;;;;5073942;28;20578;-41
2022/03/10 05:15:23;;;;;;;21.17;12.67;;;1.30;99.90;;;;;;5074193;28;20645;-40
2022/03/10 05:17:50;;;;;;;20.53;12.50;;;1.30;99.90;;;;;;5073873;28;20797;-42
2022/03/10 05:20:16;;;;;;;27.57;12.93;;;1.20;99.90;;;;;;5073309;28;20416;-41
2022/03/10 05:22:42;;;;;;;20.50;12.23;;;1.10;99.90;;;;;;5073820;28;20419;-40
2022/03/10 05:25:07;;;;;;;19.87;11.50;;;1.10;99.90;;;;;;5073651;28;20972;-42
2022/03/10 05:27:33;;;;;;;24.13;12.13;;;1.00;99.90;;;;;;5073987;28;20193;-41
2022/03/10 05:29:59;;;;;;;21.30;11.60;;;1.00;99.90;;;;;;5055988;28;20637;-40
2022/03/10 05:32:24;;;;;;;17.63;11.03;;;1.00;99.90;;;;;;5074282;28;20199;-42
2022/03/10 05:34:50;;;;;;;22.13;12.03;;;0.90;99.90;;;;;;5074166;28;20282;-46
2022/03/10 05:37:15;;;;;;;21.30;12.10;;;0.90;99.90;;;;;;5073405;28;20217;-44
2022/03/10 05:39:41;;;;;;;23.60;11.30;;;0.90;99.90;;;;;;5073741;28;20592;-45
2022/03/10 05:42:10;;;;;;;20.00;12.03;;;0.80;99.90;;;;;;5073793;28;20699;-45
2022/03/10 05:44:37;;;;;;;25.10;12.80;;;0.80;99.90;;;;;;5073012;28;20201;-45
2022/03/10 05:47:06;;;;;;;19.00;11.43;;;0.80;99.90;;;;;;5073335;28;20449;-46
2022/03/10 05:49:31;;;;;;;18.67;11.07;;;0.70;99.90;;;;;;5073339;28;20415;-47
2022/03/10 05:51:57;;;;;;;20.50;11.80;;;0.70;99.90;;;;;;5073619;28;20413;-46
2022/03/10 05:54:23;;;;;;;25.17;12.60;;;0.60;99.90;;;;;;5073307;28;20215;-45
2022/03/10 05:56:48;;;;;;;21.70;11.53;;;0.60;99.90;;;;;;5073353;28;20211;-44
2022/03/10 05:59:14;;;;;;;19.40;11.30;;;0.60;99.90;;;;;;5073549;28;20184;-45
2022/03/10 06:01:39;;;;;;;23.40;11.60;;;0.50;99.90;;;;;;5073516;28;20201;-44
2022/03/10 06:04:05;;;;;;;20.20;10.73;;;0.50;99.90;;;;;;5073197;28;20681;-47
2022/03/10 06:06:31;;;;;;;23.37;12.10;;;0.50;99.90;;;;;;5073542;28;20662;-45
2022/03/10 06:08:56;;;;;;;19.50;11.83;;;0.50;99.90;;;;;;5073256;28;20216;-43
2022/03/10 06:11:22;;;;;;;21.93;12.50;;;0.50;99.90;;;;;;5073529;28;20636;-45
2022/03/10 06:13:48;;;;;;;19.03;11.30;;;0.50;99.90;;;;;;5073510;28;20208;-44
2022/03/10 06:16:13;;;;;;;25.17;12.03;;;0.50;99.90;;;;;;5073283;28;20629;-46
2022/03/10 06:18:39;;;;;;;22.87;12.93;;;0.40;99.90;;;;;;5073290;28;20206;-45
2022/03/10 06:21:05;;;;;;;25.77;12.50;;;0.50;99.90;;;;;;5073142;28;20693;-44
2022/03/10 06:23:30;;;;;;;22.33;12.33;;;0.50;99.90;;;;;;5072985;28;20601;-44
2022/03/10 06:25:56;;;;;;;22.17;12.33;;;0.50;99.90;;;;;;5073289;28;20185;-44
2022/03/10 06:28:22;;;;;;;20.90;11.60;;;0.50;99.90;;;;;;5073195;28;20283;-45
2022/03/10 06:30:47;;;;;;;20.23;11.10;;;0.50;99.90;;;;;;5073545;28;20232;-46
2022/03/10 06:33:13;;;;;;;20.30;13.00;;;0.50;99.90;;;;;;5076849;28;20260;-45
2022/03/10 06:35:39;;;;;;;21.47;11.70;;;0.60;99.90;;;;;;5076768;28;20192;-45
2022/03/10 06:38:05;;;;;;;21.23;12.37;;;0.60;99.90;;;;;;5076729;28;20209;-45
2022/03/10 06:40:31;;;;;;;22.37;13.00;;;0.70;99.90;;;;;;5077482;28;20249;-46
2022/03/10 06:42:57;;;;;;;22.63;12.83;;;0.80;99.90;;;;;;5076616;28;20465;-44
2022/03/10 06:45:22;;;;;;;25.43;12.90;;;0.80;99.90;;;;;;5076974;28;20210;-45
2022/03/10 06:47:48;;;;;;;22.33;12.10;;;0.90;99.90;;;;;;5076591;28;20675;-44
2022/03/10 06:50:13;;;;;;;25.67;12.33;;;0.80;99.90;;;;;;5076546;28;20175;-45
2022/03/10 06:52:39;;;;;;;23.50;12.83;;;0.90;99.90;;;;;;5059395;28;20632;-45
2022/03/10 06:55:05;;;;;;;22.30;12.70;;;1.00;99.90;;;;;;5076438;28;20199;-45
2022/03/10 06:57:31;;;;;;;20.70;12.23;;;1.10;99.90;;;;;;5076673;28;20192;-45
2022/03/10 06:59:56;;;;;;;24.73;13.67;;;1.20;99.90;;;;;;5076437;28;20417;-45
2022/03/10 07:02:23;;;;;;;25.03;12.17;;;1.30;99.90;;;;;;5076326;28;20542;-45
2022/03/10 07:04:48;;;;;;;23.53;13.97;;;1.40;99.90;;;;;;5076523;28;20214;-46
2022/03/10 07:07:14;;;;;;;21.67;12.87;;;1.50;99.90;;;;;;5076172;28;20430;-45
2022/03/10 07:09:41;;;;;;;24.80;13.40;;;1.60;99.90;;;;;;5076189;28;20187;-47
2022/03/10 07:12:08;;;;;;;24.43;14.07;;;1.70;99.90;;;;;;5059010;28;20190;-44
2022/03/10 07:14:34;;;;;;;27.67;17.80;;;1.90;99.90;;;;;;5076295;28;20419;-45
2022/03/10 07:17:00;;;;;;;27.73;13.27;;;2.00;99.90;;;;;;5075983;28;20438;-46
2022/03/10 07:19:25;;;;;;;25.33;14.47;;;2.10;99.90;;;;;;5076134;28;20172;-45
2022/03/10 07:21:51;;;;;;;24.10;13.60;;;2.20;99.90;;;;;;5076102;28;20169;-48
2022/03/10 07:24:16;;;;;;;22.23;13.03;;;2.30;99.90;;;;;;5057902;28;20208;-47
2022/03/10 07:26:42;;;;;;;27.33;13.20;;;2.40;99.90;;;;;;5075871;28;20257;-46
2022/03/10 07:29:07;;;;;;;26.00;13.37;;;2.60;99.90;;;;;;5057910;28;20176;-43
2022/03/10 07:31:33;;;;;;;22.30;12.00;;;2.70;99.90;;;;;;5076042;28;20173;-45
2022/03/10 07:33:59;;;;;;;22.67;12.03;;;2.80;99.90;;;;;;5075773;28;20188;-46
2022/03/10 07:36:25;;;;;;;25.73;12.53;;;2.90;99.90;;;;;;5076385;28;20193;-45
2022/03/10 07:38:51;;;;;;;22.17;11.73;;;3.10;99.90;;;;;;5075678;28;20288;-44
2022/03/10 07:41:17;;;;;;;22.93;12.63;;;3.20;99.90;;;;;;5075802;28;20451;-46
2022/03/10 07:43:43;;;;;;;23.97;12.50;;;3.30;99.90;;;;;;5075274;28;20223;-47
2022/03/10 07:46:08;;;;;;;22.97;12.93;;;3.40;99.90;;;;;;5075889;28;20582;-46
2022/03/10 07:48:34;;;;;;;23.50;12.30;;;3.50;99.90;;;;;;5075927;28;20283;-45
2022/03/10 07:51:00;;;;;;;26.13;12.47;;;3.60;99.90;;;;;;5076479;28;20565;-45
2022/03/10 07:53:26;;;;;;;26.63;13.03;;;3.80;99.90;;;;;;5077033;28;20181;-46
2022/03/10 07:55:55;;;;;;;27.33;12.50;;;3.90;99.90;;;;;;5075420;28;20186;-43
2022/03/10 07:58:29;;;;;;;20.00;11.23;;;4.10;99.90;;;;;;5075518;28;20205;-44
2022/03/10 08:00:54;;;;;;;23.53;12.70;;;4.20;99.90;;;;;;5075320;28;20166;-43
2022/03/10 08:03:21;;;;;;;22.37;12.07;;;4.30;99.90;;;;;;5075108;28;20452;-44
2022/03/10 08:05:47;;;;;;;21.67;11.83;;;4.50;99.90;;;;;;5075472;28;20185;-43
2022/03/10 08:08:13;;;;;;;21.53;11.67;;;4.60;99.90;;;;;;5075062;28;20534;-41
2022/03/10 08:10:40;;;;;;;21.17;11.70;;;4.70;99.90;;;;;;5075117;28;20181;-46
2022/03/10 08:13:05;;;;;;;22.27;10.87;;;4.80;99.90;;;;;;5075370;28;20274;-47
2022/03/10 08:15:31;;;;;;;19.07;10.47;;;4.80;99.90;;;;;;5075265;28;20217;-45
2022/03/10 08:17:56;;;;;;;24.47;12.60;;;5.00;99.90;;;;;;5074843;28;20263;-44
2022/03/10 08:20:23;;;;;;;24.83;12.80;;;5.10;99.90;;;;;;5074854;28;20182;-44
2022/03/10 08:22:49;;;;;;;25.33;12.73;;;5.20;99.90;;;;;;5075056;28;20292;-47
2022/03/10 08:25:15;;;;;;;21.10;10.83;;;5.20;99.90;;;;;;5074862;28;20172;-46
2022/03/10 08:27:40;;;;;;;19.37;10.83;;;5.30;99.90;;;;;;5074639;28;20622;-45
2022/03/10 08:30:07;;;;;;;21.57;11.73;;;5.40;99.90;;;;;;5074753;28;20663;-45
2022/03/10 08:32:32;;;;;;;17.20;9.97;;;5.60;99.90;;;;;;5074637;28;20168;-45
2022/03/10 08:34:58;;;;;;;13.13;7.60;;;5.70;99.90;;;;;;5074474;28;20550;-45
2022/03/10 08:37:23;;;;;;;17.83;10.73;;;5.80;99.90;;;;;;5074375;28;20276;-45
2022/03/10 08:39:49;;;;;;;21.07;11.33;;;5.80;99.90;;;;;;5074460;28;20274;-46
2022/03/10 08:42:14;;;;;;;22.80;12.33;;;6.00;99.90;;;;;;5074423;28;20192;-44
2022/03/10 08:44:40;;;;;;;27.23;11.60;;;6.10;99.90;;;;;;5074334;28;20207;-45
2022/03/10 08:47:06;;;;;;;20.77;12.30;;;6.20;99.90;;;;;;5074527;28;20199;-45
2022/03/10 08:49:31;;;;;;;18.83;10.87;;;6.40;99.90;;;;;;5074519;28;20183;-46
2022/03/10 08:51:57;;;;;;;22.20;12.43;;;6.50;99.90;;;;;;5074481;28;20183;-45
2022/03/10 08:54:23;;;;;;;25.17;12.27;;;6.70;99.90;;;;;;5073749;28;20183;-44
2022/03/10 08:56:50;;;;;;;19.07;11.93;;;6.80;99.90;;;;;;5074146;28;20181;-46
2022/03/10 08:59:15;;;;;;;18.53;9.87;;;6.90;99.90;;;;;;5074399;28;20186;-47
2022/03/10 09:01:41;;;;;;;18.63;11.80;;;7.10;99.90;;;;;;5074043;28;20181;-45
2022/03/10 09:04:07;;;;;;;17.83;10.90;;;7.20;99.90;;;;;;5074000;28;20205;-43
2022/03/10 09:06:32;;;;;;;22.77;11.77;;;7.30;99.90;;;;;;5074291;28;20185;-48
2022/03/10 09:08:59;;;;;;;26.67;12.50;;;7.40;99.90;;;;;;5073826;28;20198;-49
2022/03/10 09:11:24;;;;;;;23.37;11.90;;;7.50;99.90;;;;;;5073976;28;20259;-45
2022/03/10 09:13:50;;;;;;;21.93;12.47;;;7.70;99.90;;;;;;5073898;28;20615;-44
2022/03/10 09:16:18;;;;;;;26.27;12.97;;;7.70;99.90;;;;;;5074040;28;20187;-44
2022/03/10 09:18:45;;;;;;;22.50;13.33;;;7.90;99.90;;;;;;5074036;28;20535;-42
2022/03/10 09:21:11;;;;;;;18.97;11.17;;;8.00;99.90;;;;;;5074026;28;20187;-44
2022/03/10 09:23:36;;;;;;;18.67;11.80;;;8.10;99.90;;;;;;5073597;28;20880;-47
2022/03/10 09:26:02;;;;;;;22.77;12.70;;;8.20;99.90;;;;;;5073559;28;20186;-46
2022/03/10 09:28:28;;;;;;;27.17;12.83;;;8.40;99.90;;;;;;5073825;28;20196;-46
2022/03/10 09:30:53;;;;;;;19.33;11.70;;;8.50;99.90;;;;;;5073433;28;20180;-46
2022/03/10 09:33:19;;;;;;;26.47;12.20;;;8.60;99.90;;;;;;5073786;28;20180;-48
2022/03/10 09:35:45;;;;;;;20.47;11.27;;;8.80;99.90;;;;;;5073758;28;20266;-44
2022/03/10 09:38:10;;;;;;;28.00;11.37;;;8.80;99.90;;;;;;5073419;28;20222;-44
2022/03/10 09:40:36;;;;;;;20.10;12.60;;;8.90;99.90;;;;;;5073546;28;20179;-47
2022/03/10 09:43:02;;;;;;;23.03;12.53;;;9.00;99.90;;;;;;5074072;28;20211;-41
2022/03/10 09:45:30;;;;;;;21.23;12.13;;;9.10;99.90;;;;;;5073746;28;20190;-41
2022/03/10 09:47:56;;;;;;;23.33;13.83;;;9.30;99.90;;;;;;5073373;28;20223;-41
2022/03/10 09:50:22;;;;;;;22.07;12.37;;;9.40;99.90;;;;;;5073518;28;20172;-43
2022/03/10 09:52:48;;;;;;;23.10;13.20;;;9.60;99.90;;;;;;5073607;28;20271;-39
2022/03/10 09:55:16;;;;;;;22.97;11.90;;;9.70;99.90;;;;;;5073574;28;20264;-40
2022/03/10 09:57:43;;;;;;;23.77;13.30;;;9.80;99.90;;;;;;5073566;28;20224;-41
2022/03/10 10:00:10;;;;;;;24.50;11.23;;;9.90;99.90;;;;;;5073302;28;20177;-40
2022/03/10 10:02:37;;;;;;;22.47;13.93;;;10.10;99.90;;;;;;5073546;28;20182;-43
2022/03/10 10:05:18;;;;;;;23.00;12.33;;;10.10;99.90;;;;;;5074815;28;20621;-44
2022/03/10 10:08:09;;;;;;;21.37;12.40;;;10.20;99.90;;;;;;5079754;28;20197;-41
2022/03/10 10:10:42;;;;;;;23.60;12.40;;;10.40;99.90;;;;;;5080173;28;20158;-42
2022/03/10 10:13:08;;;;;;;24.67;13.83;;;10.50;99.90;;;;;;5080249;28;20178;-41
2022/03/10 10:15:34;;;;;;;23.00;12.87;;;10.60;99.90;;;;;;5079829;28;20249;-42
2022/03/10 10:18:00;;;;;;;24.40;13.27;;;10.70;99.90;;;;;;5079695;28;20195;-42
2022/03/10 10:20:44;;;;;;;26.90;12.77;;;10.90;99.90;;;;;;5061817;28;20178;-39
2022/03/10 10:23:26;;;;;;;29.23;13.40;;;10.90;99.90;;;;;;5079908;28;20203;-41
2022/03/10 10:25:55;;;;;;;26.07;13.87;;;11.10;99.90;;;;;;5079585;28;20720;-43
2022/03/10 10:28:27;;;;;;;25.33;13.93;;;11.20;99.90;;;;;;5079667;28;20191;-41
2022/03/10 10:31:14;;;;;;;24.87;13.03;;;11.30;99.90;;;;;;5079673;28;20190;-42
2022/03/10 10:33:42;;;;;;;24.53;15.23;;;11.40;99.90;;;;;;5062556;28;20187;-41
2022/03/10 10:36:25;;;;;;;19.80;12.43;;;11.50;99.90;;;;;;5079848;28;20175;-41
2022/03/10 10:38:57;;;;;;;22.97;14.53;;;11.70;99.90;;;;;;5079816;28;20268;-41
2022/03/10 10:41:31;;;;;;;25.03;14.47;;;11.80;99.90;;;;;;5079601;28;20251;-40
2022/03/10 10:44:01;;;;;;;22.73;11.23;;;11.90;99.90;;;;;;5079829;28;20227;-42
2022/03/10 10:46:39;;;;;;;22.57;14.13;;;12.00;99.90;;;;;;5079768;28;20174;-41
2022/03/10 10:49:11;;;;;;;25.90;13.53;;;12.10;99.90;;;;;;5079447;28;20179;-40
2022/03/10 10:51:41;;;;;;;26.40;14.17;;;12.20;99.90;;;;;;5079644;28;20176;-41
2022/03/10 10:54:23;;;;;;;25.17;14.80;;;12.40;99.90;;;;;;5079728;28;20164;-39
2022/03/10 10:56:53;;;;;;;22.80;14.87;;;12.50;99.90;;;;;;5079298;28;20171;-41
2022/03/10 10:59:25;;;;;;;21.43;14.10;;;12.50;99.90;;;;;;5079277;28;20192;-40
2022/03/10 11:01:51;;;;;;;21.50;14.20;;;12.60;99.90;;;;;;5079615;28;20516;-38
2022/03/10 11:04:17;;;;;;;23.53;15.70;;;12.70;99.90;;;;;;5079530;28;20203;-40
2022/03/10 11:06:44;;;;;;;23.67;14.87;;;12.90;99.90;;;;;;5079281;28;20574;-43
2022/03/10 11:09:10;;;;;;;22.17;13.97;;;12.90;99.90;;;;;;5079598;28;20536;-42
2022/03/10 11:11:37;;;;;;;22.77;13.27;;;13.00;99.90;;;;;;5079260;28;20171;-42
2022/03/10 11:14:02;;;;;;;18.30;12.90;;;13.10;99.90;;;;;;5079522;28;20548;-42
2022/03/10 11:16:29;;;;;;;21.90;14.97;;;13.20;99.90;;;;;;5079305;28;20175;-43
2022/03/10 11:18:55;;;;;;;25.63;13.47;;;13.30;99.90;;;;;;5078213;28;20675;-41
2022/03/10 11:21:38;;;;;;;27.67;15.60;;;13.40;99.90;;;;;;5079735;28;20207;-40
2022/03/10 11:24:22;;;;;;;23.03;14.60;;;13.50;99.90;;;;;;5078313;28;20219;-41
2022/03/10 11:27:12;;;;;;;22.93;15.00;;;13.60;99.90;;;;;;5076221;28;20511;-41
2022/03/10 11:29:39;;;;;;;26.50;14.07;;;13.70;99.90;;;;;;5075905;28;20226;-40
2022/03/10 11:32:06;;;;;;;24.27;15.27;;;13.80;99.90;;;;;;5075883;28;20210;-41
2022/03/10 11:34:55;;;;;;;22.17;15.53;;;13.90;99.90;;;;;;5076124;28;20175;-39
2022/03/10 11:37:50;;;;;;;25.20;15.67;;;13.90;99.90;;;;;;5075631;28;20264;-42
2022/03/10 11:40:19;;;;;;;24.27;16.30;;;14.00;99.90;;;;;;5066312;28;20199;-39
2022/03/10 11:42:45;;;;;;;26.10;15.27;;;14.10;99.90;;;;;;5075666;28;20647;-40
2022/03/10 11:45:22;;;;;;;23.87;14.07;;;14.20;99.90;;;;;;5057600;28;20210;-40
2022/03/10 11:47:49;;;;;;;29.77;15.17;;;14.30;99.90;;;;;;5075810;28;20203;-41
2022/03/10 11:50:25;;;;;;;20.60;14.20;;;14.40;99.90;;;;;;5075504;28;20229;-40
2022/03/10 11:53:04;;;;;;;25.53;15.70;;;14.50;99.90;;;;;;5075487;28;20179;-40
2022/03/10 11:55:40;;;;;;;25.03;15.07;;;14.70;99.90;;;;;;5075437;28;20171;-40
2022/03/10 11:58:10;;;;;;;22.80;14.60;;;14.90;99.90;;;;;;5075307;28;20592;-40
2022/03/10 12:00:44;;;;;;;22.63;12.83;;;14.90;99.90;;;;;;5058159;28;20184;-41
2022/03/10 12:03:29;;;;;;;25.97;16.40;;;15.10;99.90;;;;;;5075601;28;20557;-39
2022/03/10 12:06:03;;;;;;;21.23;13.33;;;15.10;99.90;;;;;;5075177;28;20659;-41
2022/03/10 12:08:42;;;;;;;24.73;14.43;;;15.20;99.90;;;;;;5075384;28;20558;-42
2022/03/10 12:11:14;;;;;;;24.83;15.33;;;15.40;99.90;;;;;;5075298;28;20160;-39
2022/03/10 12:13:44;;;;;;;21.47;14.53;;;15.50;99.90;;;;;;5075347;28;20243;-41
2022/03/10 12:16:27;;;;;;;21.43;14.07;;;15.60;99.90;;;;;;5075000;28;20168;-40
2022/03/10 12:18:54;;;;;;;24.33;14.27;;;15.70;99.90;;;;;;5074860;28;20210;-42
2022/03/10 12:21:24;;;;;;;25.43;14.57;;;15.70;99.90;;;;;;5074836;28;20685;-41
2022/03/10 12:23:57;;;;;;;24.53;13.83;;;15.90;99.90;;;;;;5075037;28;20195;-40
2022/03/10 12:26:27;;;;;;;21.40;14.00;;;16.00;99.90;;;;;;5075073;28;20221;-40
2022/03/10 12:28:59;;;;;;;28.43;13.27;;;16.10;99.90;;;;;;5073792;28;20245;-42
2022/03/10 12:31:29;;;;;;;23.80;14.13;;;16.10;99.90;;;;;;5074969;28;20180;-41
2022/03/10 12:34:14;;;;;;;21.73;13.77;;;16.20;99.90;;;;;;5057251;28;20184;-40
2022/03/10 12:36:41;;;;;;;25.00;15.33;;;16.30;99.90;;;;;;5074424;28;20726;-43
2022/03/10 12:39:14;;;;;;;26.13;13.57;;;16.40;99.90;;;;;;5074851;28;20226;-43
2022/03/10 12:41:51;;;;;;;22.80;12.90;;;16.40;99.90;;;;;;5074546;28;20178;-41